createdAt,value
2023-03-24T00:00:32.903Z,18.35
2023-03-24T00:03:02.749Z,13.63
2023-03-24T00:05:30.849Z,15.48
2023-03-24T00:08:02.278Z,17.25
2023-03-24T00:10:30.733Z,17.40
2023-03-24T00:13:00.699Z,17.10
2023-03-24T00:15:28.119Z,17.73
2023-03-24T00:17:58.555Z,16.20
2023-03-24T00:20:26.769Z,20.23
2023-03-24T00:22:59.324Z,17.75
2023-03-24T00:25:29.396Z,21.88
2023-03-24T00:27:58.038Z,14.88
2023-03-24T00:30:26.443Z,16.88
2023-03-24T00:32:53.901Z,13.88
2023-03-24T00:35:22.001Z,15.18
2023-03-24T00:37:52.240Z,19.77
2023-03-24T00:40:21.446Z,16.75
2023-03-24T00:42:50.362Z,15.43
2023-03-24T00:45:20.189Z,13.05
2023-03-24T00:47:50.226Z,19.35
2023-03-24T00:50:26.992Z,17.67
2023-03-24T00:52:55.429Z,15.00
2023-03-24T00:55:23.140Z,17.83
2023-03-24T00:57:50.987Z,13.10
2023-03-24T01:00:26.409Z,16.40
2023-03-24T01:02:56.773Z,14.88
2023-03-24T01:05:28.125Z,14.48
2023-03-24T01:08:03.854Z,14.95
2023-03-24T01:10:34.895Z,16.73
2023-03-24T01:13:02.881Z,18.65
2023-03-24T01:15:33.673Z,13.63
2023-03-24T01:18:04.648Z,14.00
2023-03-24T01:20:33.366Z,13.75
2023-03-24T01:23:02.100Z,12.35
2023-03-24T01:25:30.663Z,13.23
2023-03-24T01:27:58.826Z,15.68
2023-03-24T01:30:27.508Z,13.88
2023-03-24T01:32:55.211Z,13.38
2023-03-24T01:35:28.385Z,12.65
2023-03-24T01:37:56.396Z,13.18
2023-03-24T01:40:29.709Z,11.60
2023-03-24T01:42:57.978Z,14.30
2023-03-24T01:45:40.696Z,13.00
2023-03-24T01:48:31.517Z,12.70
2023-03-24T01:51:10.976Z,14.52
2023-03-24T01:53:42.859Z,12.52
2023-03-24T01:56:10.943Z,11.07
2023-03-24T01:58:41.472Z,12.27
2023-03-24T02:01:08.577Z,13.32
2023-03-24T02:03:38.903Z,15.07
2023-03-24T02:06:06.691Z,13.85
2023-03-24T02:08:42.506Z,11.35
2023-03-24T02:11:10.153Z,14.80
2023-03-24T02:13:37.281Z,13.63
2023-03-24T02:16:30.769Z,11.77
2023-03-24T02:19:38.493Z,11.65
2023-03-24T02:22:34.884Z,13.77
2023-03-24T02:25:38.496Z,14.38
2023-03-24T02:28:27.322Z,12.88
2023-03-24T02:31:24.450Z,10.73
2023-03-24T02:34:00.491Z,12.85
2023-03-24T02:36:30.365Z,11.80
2023-03-24T02:39:31.065Z,14.15
2023-03-24T02:42:29.800Z,12.48
2023-03-24T02:45:15.255Z,12.10
2023-03-24T02:47:51.797Z,12.27
2023-03-24T02:51:06.809Z,10.52
2023-03-24T02:53:40.304Z,12.93
2023-03-24T02:56:25.933Z,15.65
2023-03-24T02:59:00.020Z,14.30
2023-03-24T03:01:33.207Z,12.50
2023-03-24T03:04:08.526Z,11.18
2023-03-24T03:06:40.404Z,14.25
2023-03-24T03:09:14.336Z,13.10
2023-03-24T03:11:46.468Z,12.57
2023-03-24T03:14:19.336Z,12.60
2023-03-24T03:17:00.093Z,15.48
2023-03-24T03:19:34.588Z,13.55
2023-03-24T03:22:04.444Z,13.85
2023-03-24T03:24:40.133Z,14.65
2023-03-24T03:27:29.064Z,12.65
2023-03-24T03:30:22.646Z,14.23
2023-03-24T03:33:09.679Z,13.23
2023-03-24T03:35:42.687Z,9.77
2023-03-24T03:38:22.844Z,12.45
2023-03-24T03:41:02.676Z,14.90
2023-03-24T03:43:31.778Z,15.65
2023-03-24T03:46:00.623Z,13.10
2023-03-24T03:48:29.378Z,19.08
2023-03-24T03:51:06.543Z,13.02
2023-03-24T03:53:51.914Z,13.10
2023-03-24T03:56:24.061Z,11.93
2023-03-24T03:58:51.199Z,15.43
2023-03-24T04:01:23.079Z,13.52
2023-03-24T04:04:07.066Z,12.50
2023-03-24T04:06:59.032Z,11.35
2023-03-24T04:09:34.250Z,11.85
2023-03-24T04:12:13.534Z,13.43
2023-03-24T04:14:40.523Z,10.48
2023-03-24T04:17:33.348Z,13.77
2023-03-24T04:20:26.933Z,14.55
2023-03-24T04:23:09.691Z,14.88
2023-03-24T04:25:41.040Z,22.02
2023-03-24T04:28:26.852Z,14.25
2023-03-24T04:31:19.140Z,12.93
2023-03-24T04:33:54.247Z,14.63
2023-03-24T04:36:54.552Z,19.80
2023-03-24T04:39:25.803Z,14.98
2023-03-24T04:41:54.419Z,14.10
2023-03-24T04:44:22.786Z,14.10
2023-03-24T04:46:52.108Z,14.73
2023-03-24T04:49:25.236Z,18.17
2023-03-24T04:51:53.349Z,18.92
2023-03-24T04:54:21.997Z,15.90
2023-03-24T04:56:52.102Z,19.10
2023-03-24T04:59:19.277Z,21.38
2023-03-24T05:01:52.711Z,18.50
2023-03-24T05:04:23.327Z,25.75
2023-03-24T05:06:50.540Z,19.60
2023-03-24T05:09:21.532Z,16.95
2023-03-24T05:11:49.823Z,14.70
2023-03-24T05:14:17.331Z,18.23
2023-03-24T05:16:44.582Z,19.60
2023-03-24T05:19:11.902Z,16.48
2023-03-24T05:21:38.943Z,17.63
2023-03-24T05:24:06.959Z,18.65
2023-03-24T05:26:34.574Z,22.23
2023-03-24T05:29:01.693Z,21.23
2023-03-24T05:31:28.747Z,30.05
2023-03-24T05:33:56.767Z,18.65
2023-03-24T05:36:23.896Z,23.48
2023-03-24T05:38:51.071Z,22.20
2023-03-24T05:41:18.047Z,23.77
2023-03-24T05:43:45.101Z,24.70
2023-03-24T05:46:12.222Z,19.45
2023-03-24T05:48:39.297Z,20.13
2023-03-24T05:51:06.560Z,25.48
2023-03-24T05:53:33.669Z,26.48
2023-03-24T05:56:00.743Z,23.67
2023-03-24T05:58:27.860Z,23.50
2023-03-24T06:00:54.965Z,23.95
2023-03-24T06:03:22.193Z,19.40
2023-03-24T06:05:51.013Z,22.45
2023-03-24T06:08:18.888Z,24.02
2023-03-24T06:10:45.935Z,22.60
2023-03-24T06:13:13.023Z,23.90
2023-03-24T06:15:43.120Z,19.35
2023-03-24T06:18:10.460Z,20.83
2023-03-24T06:20:37.518Z,20.75
2023-03-24T06:23:04.641Z,22.50
2023-03-24T06:25:33.736Z,21.58
2023-03-24T06:28:04.463Z,23.30
2023-03-24T06:30:31.596Z,22.17
2023-03-24T06:32:58.766Z,25.77
2023-03-24T06:35:26.049Z,28.45
2023-03-24T06:37:53.138Z,23.55
2023-03-24T06:40:20.196Z,25.55
2023-03-24T06:42:47.476Z,23.75
2023-03-24T06:45:14.497Z,22.55
2023-03-24T06:47:41.737Z,22.20
2023-03-24T06:50:09.577Z,27.88
2023-03-24T06:52:36.759Z,25.52
2023-03-24T06:55:04.714Z,18.33
2023-03-24T06:57:31.862Z,20.67
2023-03-24T06:59:58.873Z,21.00
2023-03-24T07:02:26.061Z,19.35
2023-03-24T07:04:54.205Z,19.35
2023-03-24T07:07:57.036Z,24.58
2023-03-24T07:10:10.590Z,24.50
2023-03-24T07:12:37.664Z,23.10
2023-03-24T07:15:04.974Z,17.15
2023-03-24T07:17:32.028Z,20.88
2023-03-24T07:19:59.271Z,19.85
2023-03-24T07:22:26.397Z,19.00
2023-03-24T07:24:54.331Z,22.52
2023-03-24T07:27:21.558Z,20.13
2023-03-24T07:29:48.576Z,19.98
2023-03-24T07:32:15.987Z,22.00
2023-03-24T07:34:43.999Z,23.52
2023-03-24T07:37:11.484Z,20.80
2023-03-24T07:39:38.481Z,23.58
2023-03-24T07:42:06.297Z,29.48
2023-03-24T07:44:33.479Z,18.85
2023-03-24T07:47:00.532Z,22.70
2023-03-24T07:49:27.996Z,23.00
2023-03-24T07:51:55.133Z,26.02
2023-03-24T07:54:22.146Z,22.33
2023-03-24T07:56:49.354Z,19.50
2023-03-24T07:59:17.527Z,28.88
2023-03-24T08:01:45.312Z,24.52
2023-03-24T08:04:14.376Z,21.70
2023-03-24T08:06:44.144Z,24.30
2023-03-24T08:09:11.982Z,23.73
2023-03-24T08:11:39.531Z,25.10
2023-03-24T08:14:07.453Z,24.33
2023-03-24T08:16:34.693Z,25.17
2023-03-24T08:19:01.848Z,27.13
2023-03-24T08:21:28.894Z,25.53
2023-03-24T08:23:55.944Z,19.80
2023-03-24T08:26:27.019Z,20.07
2023-03-24T08:28:54.309Z,26.17
2023-03-24T08:31:21.512Z,23.60
2023-03-24T08:33:48.683Z,21.07
2023-03-24T08:36:15.792Z,22.83
2023-03-24T08:38:42.878Z,19.77
2023-03-24T08:41:10.014Z,24.33
2023-03-24T08:43:37.874Z,27.53
2023-03-24T08:46:10.602Z,19.07
2023-03-24T08:48:41.310Z,26.17
2023-03-24T08:51:17.334Z,20.90
2023-03-24T08:53:44.808Z,21.83
2023-03-24T08:56:12.044Z,25.77
2023-03-24T08:58:39.266Z,23.77
2023-03-24T09:01:06.476Z,21.53
2023-03-24T09:03:33.595Z,21.77
2023-03-24T09:06:00.843Z,20.37
2023-03-24T09:08:28.041Z,23.90
2023-03-24T09:10:55.106Z,20.63
2023-03-24T09:13:22.394Z,19.73
2023-03-24T09:15:57.671Z,30.73
2023-03-24T09:18:25.896Z,21.60
2023-03-24T09:20:53.561Z,21.20
2023-03-24T09:23:21.740Z,21.47
2023-03-24T09:25:52.903Z,24.90
2023-03-24T09:28:21.227Z,19.80
2023-03-24T09:30:48.787Z,20.93
2023-03-24T09:33:16.462Z,19.77
2023-03-24T09:35:43.784Z,27.57
2023-03-24T09:38:13.814Z,20.20
2023-03-24T09:40:43.732Z,20.90
2023-03-24T09:43:52.359Z,22.10
2023-03-24T09:46:30.720Z,22.13
2023-03-24T09:48:58.575Z,21.07
2023-03-24T09:51:28.007Z,19.57
2023-03-24T09:54:07.831Z,20.43
2023-03-24T09:56:38.545Z,18.47
2023-03-24T09:59:11.496Z,18.80
2023-03-24T10:01:38.740Z,17.90
2023-03-24T10:04:16.618Z,20.00
2023-03-24T10:06:44.229Z,16.40
2023-03-24T10:09:19.458Z,21.70
2023-03-24T10:11:55.253Z,19.77
2023-03-24T10:14:27.920Z,18.00
2023-03-24T10:17:40.441Z,22.60
2023-03-24T10:20:26.440Z,18.70
2023-03-24T10:23:00.463Z,18.87
2023-03-24T10:25:37.570Z,22.43
2023-03-24T10:28:12.775Z,20.80
2023-03-24T10:30:44.943Z,19.00
2023-03-24T10:33:13.875Z,18.30
2023-03-24T10:36:10.077Z,20.77
2023-03-24T10:38:37.324Z,17.60
2023-03-24T10:41:05.304Z,20.17
2023-03-24T10:43:33.719Z,16.37
2023-03-24T10:46:02.901Z,16.23
2023-03-24T10:48:48.109Z,16.57
2023-03-24T10:51:19.644Z,18.37
2023-03-24T10:53:49.043Z,18.67
2023-03-24T10:56:38.400Z,17.00
2023-03-24T10:59:18.755Z,22.70
2023-03-24T11:01:46.267Z,18.50
2023-03-24T11:04:19.836Z,17.97
2023-03-24T11:07:04.605Z,17.83
2023-03-24T11:09:41.070Z,21.63
2023-03-24T11:12:22.739Z,18.20
2023-03-24T11:14:49.941Z,17.90
2023-03-24T11:17:20.059Z,15.10
2023-03-24T11:19:55.270Z,18.77
2023-03-24T11:22:23.381Z,20.40
2023-03-24T11:24:55.425Z,19.40
2023-03-24T11:27:22.599Z,16.23
2023-03-24T11:29:56.554Z,15.87
2023-03-24T11:32:30.181Z,15.67
2023-03-24T11:35:06.105Z,17.03
2023-03-24T11:37:36.286Z,14.33
2023-03-24T11:40:17.830Z,13.37
2023-03-24T11:43:04.146Z,17.57
2023-03-24T11:45:41.124Z,19.70
2023-03-24T11:48:26.811Z,22.43
2023-03-24T11:50:57.400Z,15.43
2023-03-24T11:53:45.040Z,14.90
2023-03-24T11:56:32.542Z,17.23
2023-03-24T11:59:11.659Z,14.43
2023-03-24T12:01:55.643Z,14.73
2023-03-24T12:04:34.905Z,18.03
2023-03-24T12:07:14.843Z,13.40
2023-03-24T12:09:47.686Z,18.20
2023-03-24T12:12:51.873Z,15.97
2023-03-24T12:15:40.399Z,17.20
2023-03-24T12:18:19.505Z,15.00
2023-03-24T12:21:15.349Z,17.13
2023-03-24T12:24:00.272Z,17.30
2023-03-24T12:26:30.145Z,13.23
2023-03-24T12:29:48.585Z,11.97
2023-03-24T12:32:36.922Z,14.10
2023-03-24T12:35:04.239Z,16.30
2023-03-24T12:37:57.964Z,13.03
2023-03-24T12:41:15.599Z,14.27
2023-03-24T12:43:48.385Z,14.83
2023-03-24T12:46:53.962Z,16.53
2023-03-24T12:49:33.581Z,13.37
2023-03-24T12:52:21.306Z,12.50
2023-03-24T12:55:06.402Z,13.07
2023-03-24T12:57:48.765Z,14.53
2023-03-24T13:00:21.000Z,13.83
2023-03-24T13:02:54.934Z,12.37
2023-03-24T13:05:28.929Z,13.50
2023-03-24T13:08:03.697Z,13.80
2023-03-24T13:10:41.101Z,13.43
2023-03-24T13:13:44.954Z,13.67
2023-03-24T13:16:23.314Z,12.37
2023-03-24T13:18:57.249Z,14.37
2023-03-24T13:21:26.851Z,12.47
2023-03-24T13:24:14.377Z,12.90
2023-03-24T13:27:03.236Z,14.47
2023-03-24T13:29:49.067Z,10.73
2023-03-24T13:32:25.633Z,12.90
2023-03-24T13:35:04.734Z,9.90
2023-03-24T13:37:51.946Z,11.33
2023-03-24T13:40:23.741Z,9.37
2023-03-24T13:43:20.939Z,12.20
2023-03-24T13:45:59.528Z,10.53
2023-03-24T13:48:32.627Z,9.60
2023-03-24T13:51:27.647Z,8.90
2023-03-24T13:54:07.230Z,9.17
2023-03-24T13:56:41.578Z,12.30
2023-03-24T13:59:25.106Z,12.00
2023-03-24T14:02:17.032Z,9.43
2023-03-24T14:05:22.347Z,11.63
2023-03-24T14:07:51.613Z,13.50
2023-03-24T14:10:21.056Z,16.27
2023-03-24T14:12:55.979Z,10.83
2023-03-24T14:15:34.900Z,12.40
2023-03-24T14:18:23.320Z,10.43
2023-03-24T14:21:11.099Z,17.50
2023-03-24T14:23:51.766Z,11.37
2023-03-24T14:26:21.778Z,11.33
2023-03-24T14:28:57.359Z,8.90
2023-03-24T14:31:29.442Z,9.30
2023-03-24T14:34:07.284Z,9.70
2023-03-24T14:36:41.038Z,8.43
2023-03-24T14:39:35.825Z,5.93
2023-03-24T14:42:28.752Z,4.60
2023-03-24T14:45:26.538Z,4.63
2023-03-24T14:48:01.529Z,2.50
2023-03-24T14:50:29.758Z,3.00
2023-03-24T14:53:03.511Z,2.10
2023-03-24T14:55:31.652Z,2.77
2023-03-24T14:58:03.875Z,3.53
2023-03-24T15:00:51.768Z,3.50
2023-03-24T15:03:50.501Z,3.90
2023-03-24T15:06:25.651Z,2.80
2023-03-24T15:08:55.119Z,2.20
2023-03-24T15:11:49.188Z,1.60
2023-03-24T15:14:25.692Z,1.93
2023-03-24T15:17:18.521Z,1.90
2023-03-24T15:19:49.499Z,2.30
2023-03-24T15:22:16.637Z,1.70
2023-03-24T15:24:46.791Z,1.83
2023-03-24T15:27:16.981Z,2.13
2023-03-24T15:29:46.223Z,3.33
2023-03-24T15:32:20.186Z,2.80
2023-03-24T15:34:55.099Z,1.60
2023-03-24T15:37:31.232Z,1.53
2023-03-24T15:40:05.575Z,1.40
2023-03-24T15:42:46.497Z,1.37
2023-03-24T15:45:33.330Z,1.30
2023-03-24T15:48:08.203Z,1.43
2023-03-24T15:50:38.562Z,1.20
2023-03-24T15:53:14.343Z,1.70
2023-03-24T15:55:43.810Z,1.60
2023-03-24T15:58:28.772Z,2.23
2023-03-24T16:01:02.741Z,2.17
2023-03-24T16:03:34.493Z,2.80
2023-03-24T16:06:02.791Z,3.03
2023-03-24T16:08:41.318Z,2.20
2023-03-24T16:11:12.175Z,1.57
2023-03-24T16:13:45.229Z,2.10
2023-03-24T16:16:15.823Z,2.20
2023-03-24T16:18:48.930Z,3.20
2023-03-24T16:21:28.493Z,2.97
2023-03-24T16:23:57.957Z,2.20
2023-03-24T16:26:27.900Z,2.20
2023-03-24T16:29:00.770Z,2.53
2023-03-24T16:31:35.939Z,2.47
2023-03-24T16:34:03.049Z,2.60
2023-03-24T16:36:30.330Z,2.30
2023-03-24T16:38:59.288Z,1.73
2023-03-24T16:41:26.604Z,2.97
2023-03-24T16:43:54.449Z,2.63
2023-03-24T16:46:27.743Z,1.40
2023-03-24T16:48:55.666Z,2.90
2023-03-24T16:51:23.210Z,1.60
2023-03-24T16:53:50.927Z,1.83
2023-03-24T16:56:20.688Z,2.03
2023-03-24T16:58:49.317Z,2.00
2023-03-24T17:01:33.750Z,1.50
2023-03-24T17:04:14.834Z,2.63
2023-03-24T17:06:44.928Z,3.07
2023-03-24T17:09:12.798Z,2.20
2023-03-24T17:11:50.677Z,1.87
2023-03-24T17:14:17.803Z,1.97
2023-03-24T17:16:46.621Z,2.30
2023-03-24T17:19:22.023Z,2.00
2023-03-24T17:21:50.613Z,1.83
2023-03-24T17:24:17.953Z,2.00
2023-03-24T17:26:45.813Z,2.20
2023-03-24T17:29:14.259Z,2.10
2023-03-24T17:31:43.454Z,6.43
2023-03-24T17:36:49.890Z,3.65
2023-03-24T17:39:18.617Z,4.90
2023-03-24T17:41:46.347Z,3.30
2023-03-24T17:44:13.900Z,2.77
2023-03-24T17:46:41.651Z,3.47
2023-03-24T17:49:09.087Z,3.23
2023-03-24T17:51:36.576Z,3.45
2023-03-24T17:54:04.383Z,3.30
2023-03-24T17:56:32.745Z,3.15
2023-03-24T17:59:00.325Z,4.57
2023-03-24T18:01:29.985Z,3.47
2023-03-24T18:03:58.779Z,3.88
2023-03-24T18:06:28.402Z,2.90
2023-03-24T18:08:56.116Z,3.78
2023-03-24T18:11:23.642Z,4.03
2023-03-24T18:13:52.307Z,3.55
2023-03-24T18:16:22.213Z,3.92
2023-03-24T18:18:52.104Z,3.63
2023-03-24T18:21:20.303Z,4.93
2023-03-24T18:23:49.163Z,4.20
2023-03-24T18:26:18.613Z,4.05
2023-03-24T18:28:50.378Z,4.40
2023-03-24T18:31:23.862Z,3.35
2023-03-24T18:33:53.387Z,3.30
2023-03-24T18:36:26.898Z,4.20
2023-03-24T18:39:07.938Z,3.55
2023-03-24T18:41:37.894Z,3.35
2023-03-24T18:44:08.815Z,3.45
2023-03-24T18:46:37.787Z,3.78
2023-03-24T18:49:06.809Z,3.75
2023-03-24T18:51:36.736Z,4.07
2023-03-24T18:54:07.541Z,4.10
2023-03-24T18:56:35.727Z,4.35
2023-03-24T18:59:04.452Z,4.20
2023-03-24T19:01:33.844Z,3.55
2023-03-24T19:04:02.068Z,4.05
2023-03-24T19:06:32.085Z,4.95
2023-03-24T19:09:00.694Z,4.47
2023-03-24T19:11:28.741Z,5.45
2023-03-24T19:13:57.825Z,5.10
2023-03-24T19:16:28.414Z,7.70
2023-03-24T19:18:58.740Z,8.68
2023-03-24T19:21:37.230Z,8.55
2023-03-24T19:24:11.649Z,6.53
2023-03-24T19:26:41.074Z,5.80
2023-03-24T19:29:09.079Z,7.40
2023-03-24T19:31:37.580Z,5.30
2023-03-24T19:34:06.619Z,9.10
2023-03-24T19:36:35.013Z,6.32
2023-03-24T19:39:02.983Z,4.65
2023-03-24T19:41:34.184Z,4.25
2023-03-24T19:44:02.115Z,4.35
2023-03-24T19:46:30.283Z,4.07
2023-03-24T19:48:58.338Z,4.88
2023-03-24T19:51:26.363Z,4.93
2023-03-24T19:53:55.389Z,7.05
2023-03-24T19:56:22.880Z,5.30
2023-03-24T19:58:50.942Z,4.88
2023-03-24T20:01:22.109Z,4.93
2023-03-24T20:03:51.367Z,4.47
2023-03-24T20:06:20.467Z,6.32
2023-03-24T20:08:51.911Z,6.25
2023-03-24T20:11:20.148Z,5.93
2023-03-24T20:13:48.406Z,6.45
2023-03-24T20:16:16.263Z,6.90
2023-03-24T20:18:44.393Z,6.10
2023-03-24T20:21:16.613Z,5.78
2023-03-24T20:23:44.876Z,6.50
2023-03-24T20:26:13.179Z,9.40
2023-03-24T20:28:41.550Z,6.13
2023-03-24T20:31:11.491Z,7.03
2023-03-24T20:33:46.346Z,6.95
2023-03-24T20:36:14.502Z,5.13
2023-03-24T20:38:43.643Z,3.58
2023-03-24T20:41:11.618Z,3.50
2023-03-24T20:43:39.859Z,3.55
2023-03-24T20:46:10.544Z,5.05
2023-03-24T20:48:38.393Z,4.10
2023-03-24T20:51:06.264Z,5.10
2023-03-24T20:53:35.954Z,3.17
2023-03-24T20:56:07.384Z,3.53
2023-03-24T20:58:37.641Z,3.97
2023-03-24T21:01:10.499Z,4.85
2023-03-24T21:03:38.416Z,3.45
2023-03-24T21:06:11.564Z,3.33
2023-03-24T21:08:44.619Z,4.40
2023-03-24T21:11:13.559Z,5.25
2023-03-24T21:13:41.825Z,5.05
2023-03-24T21:16:11.671Z,5.03
2023-03-24T21:18:43.146Z,5.35
2023-03-24T21:21:12.934Z,5.63
2023-03-24T21:23:41.906Z,6.13
2023-03-24T21:26:14.158Z,4.95
2023-03-24T21:28:42.269Z,6.10
2023-03-24T21:31:14.627Z,7.10
2023-03-24T21:33:44.380Z,5.72
2023-03-24T21:36:12.968Z,5.68
2023-03-24T21:38:41.260Z,3.90
2023-03-24T21:41:08.996Z,3.22
2023-03-24T21:43:36.782Z,5.00
2023-03-24T21:46:04.172Z,3.25
2023-03-24T21:48:35.191Z,4.70
2023-03-24T21:51:03.996Z,4.35
2023-03-24T21:53:31.104Z,1.90
2023-03-24T21:56:05.536Z,1.40
2023-03-24T21:58:33.762Z,1.35
2023-03-24T22:01:01.600Z,1.30
2023-03-24T22:03:28.907Z,1.55
2023-03-24T22:05:57.498Z,1.40
2023-03-24T22:08:27.038Z,1.33
2023-03-24T22:10:58.718Z,3.45
2023-03-24T22:13:27.741Z,1.50
2023-03-24T22:16:00.118Z,1.83
2023-03-24T22:18:29.799Z,2.25
2023-03-24T22:21:03.803Z,1.50
2023-03-24T22:23:36.921Z,1.20
2023-03-24T22:26:09.614Z,1.85
2023-03-24T22:28:38.279Z,1.55
2023-03-24T22:31:11.113Z,1.40
2023-03-24T22:33:38.745Z,0.98
2023-03-24T22:36:06.885Z,1.17
2023-03-24T22:38:34.697Z,1.13
2023-03-24T22:41:04.974Z,0.88
2023-03-24T22:43:32.490Z,1.30
2023-03-24T22:45:59.945Z,2.35
2023-03-24T22:48:26.958Z,1.10
2023-03-24T22:50:54.421Z,1.27
2023-03-24T22:53:21.714Z,2.72
2023-03-24T22:55:49.481Z,1.33
2023-03-24T22:58:16.976Z,0.98
2023-03-24T23:00:47.136Z,1.35
2023-03-24T23:03:14.368Z,2.38
2023-03-24T23:05:42.469Z,1.55
2023-03-24T23:08:09.986Z,1.75
2023-03-24T23:10:37.483Z,1.35
2023-03-24T23:13:04.743Z,1.38
2023-03-24T23:15:32.210Z,1.02
2023-03-24T23:18:00.115Z,1.48
2023-03-24T23:20:28.529Z,1.50
2023-03-24T23:22:56.470Z,1.90
2023-03-24T23:25:23.822Z,1.35
2023-03-24T23:27:50.959Z,2.55
2023-03-24T23:30:18.299Z,1.45
2023-03-24T23:32:47.479Z,1.30
2023-03-24T23:35:15.801Z,1.98
2023-03-24T23:37:43.077Z,1.80
2023-03-24T23:40:15.082Z,1.45
2023-03-24T23:42:47.178Z,1.30
2023-03-24T23:45:18.141Z,1.65
2023-03-24T23:47:50.865Z,3.05
2023-03-24T23:50:19.916Z,1.58
2023-03-24T23:52:48.085Z,0.82
2023-03-24T23:55:18.015Z,1.45
2023-03-24T23:57:46.620Z,1.30
